createdAt,value
2017-08-13T00:00:08.925Z,1018.64
2017-08-13T00:01:09.576Z,1018.66
2017-08-13T00:02:10.201Z,1018.54
2017-08-13T00:03:10.840Z,1018.54
2017-08-13T00:04:11.682Z,1018.45
2017-08-13T00:05:12.318Z,1018.49
2017-08-13T00:06:12.949Z,1018.49
2017-08-13T00:07:13.585Z,1018.51
2017-08-13T00:08:14.225Z,1018.54
2017-08-13T00:09:14.861Z,1018.54
2017-08-13T00:10:15.500Z,1018.54
2017-08-13T00:11:16.132Z,1018.51
2017-08-13T00:12:16.767Z,1018.54
2017-08-13T00:13:17.559Z,1018.49
2017-08-13T00:14:18.193Z,1018.51
2017-08-13T00:15:18.830Z,1018.50
2017-08-13T00:16:19.467Z,1018.49
2017-08-13T00:17:20.159Z,1018.51
2017-08-13T00:18:20.796Z,1018.48
2017-08-13T00:19:21.430Z,1018.56
2017-08-13T00:20:22.067Z,1018.50
2017-08-13T00:21:22.900Z,1018.56
2017-08-13T00:22:23.543Z,1018.60
2017-08-13T00:23:24.178Z,1018.55
2017-08-13T00:24:24.818Z,1018.61
2017-08-13T00:25:25.456Z,1018.57
2017-08-13T00:26:26.093Z,1018.59
2017-08-13T00:27:26.726Z,1018.58
2017-08-13T00:28:27.366Z,1018.50
2017-08-13T00:29:28.159Z,1018.44
2017-08-13T00:30:28.788Z,1018.51
2017-08-13T00:31:29.422Z,1018.48
2017-08-13T00:32:30.057Z,1018.48
2017-08-13T00:33:30.694Z,1018.59
2017-08-13T00:34:31.333Z,1018.53
2017-08-13T00:35:31.969Z,1018.52
2017-08-13T00:36:32.608Z,1018.46
2017-08-13T00:37:33.442Z,1018.51
2017-08-13T00:38:34.082Z,1018.37
2017-08-13T00:39:34.717Z,1018.40
2017-08-13T00:40:35.367Z,1018.30
2017-08-13T00:41:35.985Z,1018.29
2017-08-13T00:42:36.625Z,1018.38
2017-08-13T00:43:37.264Z,1018.37
2017-08-13T00:44:37.894Z,1018.35
2017-08-13T00:45:38.530Z,1018.30
2017-08-13T00:46:39.320Z,1018.31
2017-08-13T00:47:39.956Z,1018.25
2017-08-13T00:48:40.595Z,1018.31
2017-08-13T00:49:41.226Z,1018.26
2017-08-13T00:50:41.866Z,1018.18
2017-08-13T00:51:42.499Z,1018.27
2017-08-13T00:52:43.139Z,1018.28
2017-08-13T00:53:43.783Z,1018.36
2017-08-13T00:54:44.566Z,1018.21
2017-08-13T00:55:45.207Z,1018.32
2017-08-13T00:56:45.839Z,1018.25
2017-08-13T00:57:46.481Z,1018.26
2017-08-13T00:58:47.114Z,1018.19
2017-08-13T00:59:47.752Z,1018.19
2017-08-13T01:00:48.387Z,1018.22
2017-08-13T01:01:49.022Z,1018.33
2017-08-13T01:02:49.857Z,1018.16
2017-08-13T01:03:50.491Z,1018.12
2017-08-13T01:04:51.125Z,1018.13
2017-08-13T01:05:51.768Z,1018.18
2017-08-13T01:06:52.401Z,1018.13
2017-08-13T01:07:53.046Z,1018.18
2017-08-13T01:08:53.682Z,1018.18
2017-08-13T01:09:54.313Z,1018.16
2017-08-13T01:10:55.249Z,1018.13
2017-08-13T01:11:55.883Z,1018.17
2017-08-13T01:12:56.522Z,1018.11
2017-08-13T01:13:57.157Z,1018.11
2017-08-13T01:14:57.792Z,1018.07
2017-08-13T01:15:58.426Z,1018.08
2017-08-13T01:16:59.113Z,1018.02
2017-08-13T01:17:59.747Z,1018.06
2017-08-13T01:19:00.583Z,1018.08
2017-08-13T01:20:01.219Z,1018.15
2017-08-13T01:21:01.861Z,1018.14
2017-08-13T01:22:02.493Z,1017.99
2017-08-13T01:23:03.128Z,1018.02
2017-08-13T01:24:03.762Z,1018.05
2017-08-13T01:25:04.398Z,1018.03
2017-08-13T01:26:05.032Z,1018.03
2017-08-13T01:27:05.673Z,1018.06
2017-08-13T01:28:06.461Z,1017.93
2017-08-13T01:29:07.096Z,1018.02
2017-08-13T01:30:07.733Z,1017.98
2017-08-13T01:31:08.373Z,1018.04
2017-08-13T01:32:09.004Z,1018.05
2017-08-13T01:33:09.645Z,1017.99
2017-08-13T01:34:10.279Z,1017.95
2017-08-13T01:35:10.920Z,1017.96
2017-08-13T01:36:11.758Z,1017.95
2017-08-13T01:37:12.389Z,1017.93
2017-08-13T01:38:13.027Z,1017.97
2017-08-13T01:39:13.661Z,1017.92
2017-08-13T01:40:14.302Z,1017.99
2017-08-13T01:41:14.933Z,1018.05
2017-08-13T01:42:15.575Z,1017.93
2017-08-13T01:43:16.206Z,1017.97
2017-08-13T01:44:17.145Z,1017.94
2017-08-13T01:45:17.836Z,1017.95
2017-08-13T01:46:18.474Z,1017.94
2017-08-13T01:47:19.113Z,1017.99
2017-08-13T01:48:19.746Z,1017.94
2017-08-13T01:49:20.390Z,1017.96
2017-08-13T01:50:21.023Z,1017.89
2017-08-13T01:51:21.658Z,1017.94
2017-08-13T01:52:22.453Z,1017.94
2017-08-13T01:53:23.089Z,1017.87
2017-08-13T01:54:23.725Z,1017.88
2017-08-13T01:55:24.358Z,1017.80
2017-08-13T01:56:24.997Z,1017.86
2017-08-13T01:57:25.628Z,1017.79
2017-08-13T01:58:26.266Z,1017.77
2017-08-13T01:59:26.904Z,1017.83
2017-08-13T02:00:27.535Z,1017.81
2017-08-13T02:01:28.375Z,1017.80
2017-08-13T02:02:29.011Z,1017.77
2017-08-13T02:03:29.646Z,1017.82
2017-08-13T02:04:30.280Z,1017.78
2017-08-13T02:05:30.914Z,1017.79
2017-08-13T02:06:31.551Z,1017.77
2017-08-13T02:07:32.187Z,1017.76
2017-08-13T02:08:32.828Z,1017.73
2017-08-13T02:09:33.611Z,1017.75
2017-08-13T02:10:34.247Z,1017.79
2017-08-13T02:11:34.885Z,1017.67
2017-08-13T02:12:35.524Z,1017.74
2017-08-13T02:13:36.162Z,1017.80
2017-08-13T02:14:36.795Z,1017.70
2017-08-13T02:15:37.429Z,1017.64
2017-08-13T02:16:38.069Z,1017.61
2017-08-13T02:17:39.010Z,1017.71
2017-08-13T02:18:39.637Z,1017.62
2017-08-13T02:19:40.275Z,1017.69
2017-08-13T02:20:40.906Z,1017.67
2017-08-13T02:21:41.544Z,1017.66
2017-08-13T02:22:42.179Z,1017.67
2017-08-13T02:23:42.820Z,1017.63
2017-08-13T02:24:43.458Z,1017.65
2017-08-13T02:25:44.290Z,1017.62
2017-08-13T02:26:47.678Z,1017.69
2017-08-13T02:27:48.313Z,1017.58
2017-08-13T02:28:48.954Z,1017.66
2017-08-13T02:29:49.584Z,1017.62
2017-08-13T02:30:50.226Z,1017.55
2017-08-13T02:31:50.859Z,1017.56
2017-08-13T02:32:51.499Z,1017.58
2017-08-13T02:33:52.336Z,1017.58
2017-08-13T02:34:52.979Z,1017.53
2017-08-13T02:35:53.619Z,1017.48
2017-08-13T02:36:54.253Z,1017.57
2017-08-13T02:37:54.887Z,1017.58
2017-08-13T02:38:55.521Z,1017.56
2017-08-13T02:39:56.159Z,1017.56
2017-08-13T02:40:56.791Z,1017.61
2017-08-13T02:41:57.430Z,1017.61
2017-08-13T02:42:58.210Z,1017.60
2017-08-13T02:43:58.848Z,1017.60
2017-08-13T02:44:59.482Z,1017.54
2017-08-13T02:46:00.123Z,1017.59
2017-08-13T02:47:00.761Z,1017.53
2017-08-13T02:48:01.394Z,1017.62
2017-08-13T02:49:02.027Z,1017.53
2017-08-13T02:50:02.663Z,1017.56
2017-08-13T02:51:03.549Z,1017.54
2017-08-13T02:52:04.187Z,1017.54
2017-08-13T02:53:04.825Z,1017.62
2017-08-13T02:54:05.462Z,1017.59
2017-08-13T02:55:06.099Z,1017.49
2017-08-13T02:56:06.730Z,1017.49
2017-08-13T02:57:07.371Z,1017.53
2017-08-13T02:58:08.008Z,1017.45
2017-08-13T02:59:08.853Z,1017.50
2017-08-13T03:00:09.544Z,1017.50
2017-08-13T03:01:10.181Z,1017.47
2017-08-13T03:02:10.812Z,1017.54
2017-08-13T03:03:11.459Z,1017.42
2017-08-13T03:04:12.094Z,1017.45
2017-08-13T03:05:12.725Z,1017.45
2017-08-13T03:06:13.367Z,1017.45
2017-08-13T03:07:14.197Z,1017.36
2017-08-13T03:08:14.832Z,1017.35
2017-08-13T03:09:15.468Z,1017.32
2017-08-13T03:10:16.103Z,1017.32
2017-08-13T03:11:16.736Z,1017.33
2017-08-13T03:12:17.378Z,1017.33
2017-08-13T03:13:18.010Z,1017.38
2017-08-13T03:14:18.646Z,1017.29
2017-08-13T03:15:19.486Z,1017.20
2017-08-13T03:16:20.129Z,1017.18
2017-08-13T03:17:20.765Z,1017.18
2017-08-13T03:18:21.404Z,1017.10
2017-08-13T03:19:22.039Z,1017.11
2017-08-13T03:20:22.669Z,1017.11
2017-08-13T03:21:23.309Z,1017.15
2017-08-13T03:22:23.947Z,1017.14
2017-08-13T03:23:24.580Z,1017.14
2017-08-13T03:24:25.419Z,1017.25
2017-08-13T03:25:26.050Z,1017.23
2017-08-13T03:26:26.691Z,1017.22
2017-08-13T03:27:27.323Z,1017.29
2017-08-13T03:28:27.964Z,1017.20
2017-08-13T03:29:28.594Z,1017.20
2017-08-13T03:30:29.230Z,1017.24
2017-08-13T03:31:29.866Z,1017.22
2017-08-13T03:32:30.703Z,1017.25
2017-08-13T03:33:31.336Z,1017.22
2017-08-13T03:34:31.978Z,1017.22
2017-08-13T03:35:32.609Z,1017.21
2017-08-13T03:36:33.243Z,1017.18
2017-08-13T03:37:33.878Z,1017.18
2017-08-13T03:38:34.515Z,1017.24
2017-08-13T03:39:35.152Z,1017.18
2017-08-13T03:40:35.995Z,1017.31
2017-08-13T03:41:36.637Z,1017.24
2017-08-13T03:42:37.262Z,1017.26
2017-08-13T03:43:37.904Z,1017.24
2017-08-13T03:44:38.541Z,1017.21
2017-08-13T03:45:39.174Z,1017.17
2017-08-13T03:46:39.807Z,1017.21
2017-08-13T03:47:40.443Z,1017.20
2017-08-13T03:48:41.279Z,1017.20
2017-08-13T03:49:41.914Z,1017.19
2017-08-13T03:50:42.549Z,1017.21
2017-08-13T03:51:43.190Z,1017.22
2017-08-13T03:52:43.821Z,1017.22
2017-08-13T03:53:44.458Z,1017.23
2017-08-13T03:54:45.092Z,1017.22
2017-08-13T03:55:45.725Z,1017.24
2017-08-13T03:56:46.364Z,1017.18
2017-08-13T03:57:47.145Z,1017.27
2017-08-13T03:58:47.780Z,1017.20
2017-08-13T03:59:48.420Z,1017.14
2017-08-13T04:00:49.058Z,1017.20
2017-08-13T04:01:49.698Z,1017.13
2017-08-13T04:02:50.326Z,1017.11
2017-08-13T04:03:50.960Z,1017.13
2017-08-13T04:04:51.598Z,1017.17
2017-08-13T04:05:52.434Z,1017.23
2017-08-13T04:06:53.066Z,1017.16
2017-08-13T04:07:53.706Z,1017.13
2017-08-13T04:08:54.347Z,1017.16
2017-08-13T04:09:54.982Z,1017.16
2017-08-13T04:10:55.626Z,1017.21
2017-08-13T04:11:56.252Z,1017.22
2017-08-13T04:12:56.891Z,1017.15
2017-08-13T04:13:57.727Z,1017.20
2017-08-13T04:14:58.315Z,1017.20
2017-08-13T04:15:58.947Z,1017.14
2017-08-13T04:16:59.584Z,1017.14
2017-08-13T04:18:00.218Z,1017.14
2017-08-13T04:19:00.864Z,1017.07
2017-08-13T04:20:01.500Z,1017.08
2017-08-13T04:21:02.132Z,1017.05
2017-08-13T04:22:02.966Z,1017.05
2017-08-13T04:23:03.611Z,1017.06
2017-08-13T04:24:04.249Z,1017.06
2017-08-13T04:25:04.878Z,1017.05
2017-08-13T04:26:05.518Z,1017.11
2017-08-13T04:27:06.149Z,1017.05
2017-08-13T04:28:06.783Z,1016.95
2017-08-13T04:29:07.422Z,1017.04
2017-08-13T04:30:08.205Z,1017.07
2017-08-13T04:31:08.841Z,1017.01
2017-08-13T04:32:09.476Z,1017.00
2017-08-13T04:33:10.116Z,1016.98
2017-08-13T04:34:10.753Z,1016.97
2017-08-13T04:35:11.386Z,1016.97
2017-08-13T04:36:12.022Z,1016.97
2017-08-13T04:37:12.713Z,1016.99
2017-08-13T04:38:13.345Z,1016.97
2017-08-13T04:39:14.285Z,1016.91
2017-08-13T04:40:14.917Z,1016.85
2017-08-13T04:41:15.558Z,1016.88
2017-08-13T04:42:16.191Z,1016.89
2017-08-13T04:43:16.824Z,1016.85
2017-08-13T04:44:17.465Z,1016.88
2017-08-13T04:45:18.101Z,1016.88
2017-08-13T04:46:18.739Z,1016.82
2017-08-13T04:47:19.525Z,1016.84
2017-08-13T04:48:20.169Z,1016.81
2017-08-13T04:49:20.803Z,1016.87
2017-08-13T04:50:21.443Z,1016.77
2017-08-13T04:51:22.081Z,1016.81
2017-08-13T04:52:22.712Z,1016.80
2017-08-13T04:53:23.347Z,1016.82
2017-08-13T04:54:23.987Z,1016.84
2017-08-13T04:55:24.820Z,1016.84
2017-08-13T04:56:25.456Z,1016.87
2017-08-13T04:57:26.090Z,1016.80
2017-08-13T04:58:26.731Z,1016.79
2017-08-13T04:59:27.362Z,1016.81
2017-08-13T05:00:27.999Z,1016.84
2017-08-13T05:01:28.640Z,1016.87
2017-08-13T05:02:29.321Z,1016.82
2017-08-13T05:03:30.106Z,1016.82
2017-08-13T05:04:30.746Z,1016.78
2017-08-13T05:05:31.384Z,1016.81
2017-08-13T05:06:32.021Z,1016.82
2017-08-13T05:07:32.657Z,1016.79
2017-08-13T05:08:33.289Z,1016.79
2017-08-13T05:09:33.924Z,1016.78
2017-08-13T05:10:34.562Z,1016.85
2017-08-13T05:11:35.208Z,1016.80
2017-08-13T05:12:36.139Z,1016.82
2017-08-13T05:13:36.774Z,1016.80
2017-08-13T05:14:37.416Z,1016.78
2017-08-13T05:15:38.049Z,1016.80
2017-08-13T05:16:38.681Z,1016.78
2017-08-13T05:17:39.315Z,1016.78
2017-08-13T05:18:39.951Z,1016.78
2017-08-13T05:19:40.585Z,1016.87
2017-08-13T05:20:41.427Z,1016.85
2017-08-13T05:21:42.061Z,1016.92
2017-08-13T05:22:42.696Z,1016.87
2017-08-13T05:23:43.336Z,1016.88
2017-08-13T05:24:43.978Z,1016.84
2017-08-13T05:25:44.611Z,1016.90
2017-08-13T05:26:45.243Z,1016.87
2017-08-13T05:27:45.889Z,1016.78
2017-08-13T05:28:46.672Z,1016.85
2017-08-13T05:29:47.304Z,1016.83
2017-08-13T05:30:47.938Z,1016.85
2017-08-13T05:31:48.573Z,1016.78
2017-08-13T05:32:49.210Z,1016.89
2017-08-13T05:33:49.849Z,1016.86
2017-08-13T05:34:50.481Z,1016.95
2017-08-13T05:35:51.122Z,1016.89
2017-08-13T05:36:52.104Z,1016.86
2017-08-13T05:37:52.744Z,1017.00
2017-08-13T05:38:53.379Z,1016.93
2017-08-13T05:39:54.017Z,1016.96
2017-08-13T05:40:54.650Z,1016.93
2017-08-13T05:41:55.283Z,1016.96
2017-08-13T05:42:55.925Z,1016.95
2017-08-13T05:43:56.561Z,1016.89
2017-08-13T05:44:57.443Z,1016.87
2017-08-13T05:45:58.084Z,1016.95
2017-08-13T05:46:58.717Z,1016.93
2017-08-13T05:47:59.352Z,1016.94
2017-08-13T05:48:59.997Z,1016.90
2017-08-13T05:50:00.625Z,1016.94
2017-08-13T05:51:01.264Z,1016.96
2017-08-13T05:52:01.903Z,1016.93
2017-08-13T05:53:02.538Z,1017.00
2017-08-13T05:54:03.320Z,1016.94
2017-08-13T05:55:03.954Z,1016.88
2017-08-13T05:56:04.596Z,1016.93
2017-08-13T05:57:05.230Z,1016.96
2017-08-13T05:58:05.864Z,1016.88
2017-08-13T05:59:06.504Z,1016.87
2017-08-13T06:00:07.142Z,1016.89
2017-08-13T06:01:07.775Z,1016.89
2017-08-13T06:02:08.660Z,1016.88
2017-08-13T06:03:09.300Z,1016.90
2017-08-13T06:04:09.939Z,1016.90
2017-08-13T06:05:10.576Z,1016.82
2017-08-13T06:06:11.209Z,1016.83
2017-08-13T06:07:11.845Z,1016.84
2017-08-13T06:08:12.477Z,1016.89
2017-08-13T06:09:13.120Z,1016.89
2017-08-13T06:10:13.955Z,1016.95
2017-08-13T06:11:14.594Z,1016.94
2017-08-13T06:12:15.229Z,1017.00
2017-08-13T06:13:15.860Z,1016.99
2017-08-13T06:14:16.492Z,1017.03
2017-08-13T06:15:17.129Z,1017.00
2017-08-13T06:16:17.767Z,1016.96
2017-08-13T06:17:18.404Z,1016.98
2017-08-13T06:18:19.193Z,1017.07
2017-08-13T06:19:19.831Z,1017.06
2017-08-13T06:20:20.467Z,1017.02
2017-08-13T06:21:21.100Z,1017.02
2017-08-13T06:22:21.734Z,1017.11
2017-08-13T06:23:22.368Z,1017.02
2017-08-13T06:24:23.009Z,1017.09
2017-08-13T06:25:23.646Z,1017.07
2017-08-13T06:26:24.335Z,1017.07
2017-08-13T06:27:25.166Z,1017.02
2017-08-13T06:28:25.807Z,1017.08
2017-08-13T06:29:26.499Z,1016.99
2017-08-13T06:30:27.134Z,1017.02
2017-08-13T06:31:27.775Z,1017.13
2017-08-13T06:32:28.410Z,1017.06
2017-08-13T06:33:29.041Z,1017.09
2017-08-13T06:34:29.680Z,1017.11
2017-08-13T06:35:30.468Z,1017.11
2017-08-13T06:36:31.106Z,1017.07
2017-08-13T06:37:31.736Z,1017.09
2017-08-13T06:38:32.378Z,1017.06
2017-08-13T06:39:33.012Z,1017.11
2017-08-13T06:40:33.644Z,1017.07
2017-08-13T06:41:34.278Z,1017.06
2017-08-13T06:42:34.912Z,1017.09
2017-08-13T06:43:35.747Z,1017.06
2017-08-13T06:44:36.387Z,1017.06
2017-08-13T06:45:37.019Z,1017.08
2017-08-13T06:46:37.656Z,1017.10
2017-08-13T06:47:38.289Z,1017.10
2017-08-13T06:48:38.923Z,1017.06
2017-08-13T06:49:39.565Z,1017.09
2017-08-13T06:50:40.196Z,1017.17
2017-08-13T06:51:41.029Z,1017.10
2017-08-13T06:52:41.664Z,1017.13
2017-08-13T06:53:42.296Z,1017.16
2017-08-13T06:54:42.935Z,1017.21
2017-08-13T06:55:43.571Z,1017.19
2017-08-13T06:56:44.208Z,1017.19
2017-08-13T06:57:44.840Z,1017.17
2017-08-13T06:58:45.475Z,1017.17
2017-08-13T06:59:46.313Z,1017.17
2017-08-13T07:00:46.950Z,1017.20
2017-08-13T07:01:47.587Z,1017.12
2017-08-13T07:02:48.224Z,1017.19
2017-08-13T07:03:48.859Z,1017.18
2017-08-13T07:04:49.496Z,1017.21
2017-08-13T07:05:50.128Z,1017.24
2017-08-13T07:06:50.763Z,1017.27
2017-08-13T07:07:51.398Z,1017.31
2017-08-13T07:08:52.230Z,1017.27
2017-08-13T07:09:52.870Z,1017.28
2017-08-13T07:10:53.502Z,1017.22
2017-08-13T07:11:54.142Z,1017.29
2017-08-13T07:12:54.779Z,1017.20
2017-08-13T07:13:55.423Z,1017.26
2017-08-13T07:14:56.062Z,1017.25
2017-08-13T07:15:56.696Z,1017.22
2017-08-13T07:16:57.539Z,1017.26
2017-08-13T07:17:58.176Z,1017.23
2017-08-13T07:18:58.806Z,1017.29
2017-08-13T07:19:59.446Z,1017.26
2017-08-13T07:21:00.082Z,1017.31
2017-08-13T07:22:00.721Z,1017.20
2017-08-13T07:23:01.351Z,1017.29
2017-08-13T07:24:01.991Z,1017.20
2017-08-13T07:25:02.828Z,1017.17
2017-08-13T07:26:03.462Z,1017.24
2017-08-13T07:27:04.101Z,1017.17
2017-08-13T07:28:04.738Z,1017.29
2017-08-13T07:29:05.376Z,1017.23
2017-08-13T07:30:06.007Z,1017.31
2017-08-13T07:31:06.694Z,1017.31
2017-08-13T07:32:07.330Z,1017.38
2017-08-13T07:33:08.113Z,1017.40
2017-08-13T07:34:08.759Z,1017.43
2017-08-13T07:35:09.395Z,1017.40
2017-08-13T07:36:10.036Z,1017.45
2017-08-13T07:37:10.662Z,1017.57
2017-08-13T07:38:11.299Z,1017.42
2017-08-13T07:39:11.935Z,1017.46
2017-08-13T07:40:12.568Z,1017.40
2017-08-13T07:41:13.201Z,1017.43
2017-08-13T07:42:14.044Z,1017.55
2017-08-13T07:43:14.684Z,1017.44
2017-08-13T07:44:15.316Z,1017.48
2017-08-13T07:45:15.950Z,1017.41
2017-08-13T07:46:16.584Z,1017.47
2017-08-13T07:47:17.220Z,1017.45
2017-08-13T07:48:17.854Z,1017.46
2017-08-13T07:49:18.493Z,1017.38
2017-08-13T07:50:19.326Z,1017.50
2017-08-13T07:51:19.960Z,1017.49
2017-08-13T07:52:20.595Z,1017.45
2017-08-13T07:53:21.232Z,1017.49
2017-08-13T07:54:21.870Z,1017.49
2017-08-13T07:55:22.507Z,1017.51
2017-08-13T07:56:23.139Z,1017.56
2017-08-13T07:57:23.780Z,1017.57
2017-08-13T07:58:24.615Z,1017.62
2017-08-13T07:59:25.252Z,1017.66
2017-08-13T08:00:25.892Z,1017.64
2017-08-13T08:01:26.529Z,1017.65
2017-08-13T08:02:27.166Z,1017.68
2017-08-13T08:03:27.796Z,1017.71
2017-08-13T08:04:28.435Z,1017.74
2017-08-13T08:05:29.065Z,1017.69
2017-08-13T08:06:29.905Z,1017.72
2017-08-13T08:07:30.544Z,1017.72
2017-08-13T08:08:31.181Z,1017.67
2017-08-13T08:09:31.820Z,1017.67
2017-08-13T08:10:32.454Z,1017.66
2017-08-13T08:11:33.094Z,1017.74
2017-08-13T08:12:33.730Z,1017.75
2017-08-13T08:13:34.360Z,1017.72
2017-08-13T08:14:35.299Z,1017.80
2017-08-13T08:15:35.932Z,1017.73
2017-08-13T08:16:36.567Z,1017.75
2017-08-13T08:17:37.202Z,1017.72
2017-08-13T08:18:37.843Z,1017.77
2017-08-13T08:19:38.474Z,1017.70
2017-08-13T08:20:39.114Z,1017.78
2017-08-13T08:21:39.752Z,1017.72
2017-08-13T08:22:40.383Z,1017.71
2017-08-13T08:23:41.274Z,1017.72
2017-08-13T08:24:41.905Z,1017.73
2017-08-13T08:25:42.540Z,1017.70
2017-08-13T08:26:43.181Z,1017.68
2017-08-13T08:27:43.813Z,1017.61
2017-08-13T08:28:44.447Z,1017.66
2017-08-13T08:29:45.083Z,1017.64
2017-08-13T08:30:45.722Z,1017.70
2017-08-13T08:31:46.653Z,1017.71
2017-08-13T08:32:47.291Z,1017.68
2017-08-13T08:33:47.929Z,1017.71
2017-08-13T08:34:48.560Z,1017.71
2017-08-13T08:35:49.204Z,1017.71
2017-08-13T08:36:49.882Z,1017.77
2017-08-13T08:37:50.520Z,1017.74
2017-08-13T08:38:51.154Z,1017.70
2017-08-13T08:39:51.939Z,1017.71
2017-08-13T08:40:52.575Z,1017.65
2017-08-13T08:41:53.209Z,1017.71
2017-08-13T08:42:53.849Z,1017.66
2017-08-13T08:43:54.483Z,1017.67
2017-08-13T08:44:55.115Z,1017.69
2017-08-13T08:45:55.752Z,1017.66
2017-08-13T08:46:56.441Z,1017.71
2017-08-13T08:47:57.276Z,1017.66
2017-08-13T08:48:57.908Z,1017.67
2017-08-13T08:49:58.542Z,1017.73
2017-08-13T08:50:59.183Z,1017.64
2017-08-13T08:51:59.826Z,1017.72
2017-08-13T08:53:00.462Z,1017.67
2017-08-13T08:54:01.097Z,1017.77
2017-08-13T08:55:01.729Z,1017.69
2017-08-13T08:56:02.361Z,1017.82
2017-08-13T08:57:03.155Z,1017.74
2017-08-13T08:58:03.793Z,1017.66
2017-08-13T08:59:04.429Z,1017.66
2017-08-13T09:00:05.068Z,1017.74
2017-08-13T09:01:05.711Z,1017.72
2017-08-13T09:02:06.350Z,1017.65
2017-08-13T09:03:06.979Z,1017.63
2017-08-13T09:04:07.613Z,1017.67
2017-08-13T09:05:08.648Z,1017.62
2017-08-13T09:06:09.283Z,1017.65
2017-08-13T09:07:09.916Z,1017.67
2017-08-13T09:08:10.558Z,1017.64
2017-08-13T09:09:11.188Z,1017.63
2017-08-13T09:10:11.829Z,1017.62
2017-08-13T09:11:12.466Z,1017.59
2017-08-13T09:12:13.105Z,1017.66
2017-08-13T09:13:13.936Z,1017.54
2017-08-13T09:14:14.583Z,1017.59
2017-08-13T09:15:15.215Z,1017.60
2017-08-13T09:16:15.845Z,1017.65
2017-08-13T09:17:16.480Z,1017.62
2017-08-13T09:18:17.115Z,1017.56
2017-08-13T09:19:17.751Z,1017.60
2017-08-13T09:20:18.385Z,1017.60
2017-08-13T09:21:19.419Z,1017.54
2017-08-13T09:22:20.055Z,1017.60
2017-08-13T09:23:20.696Z,1017.60
2017-08-13T09:24:21.331Z,1017.60
2017-08-13T09:25:21.966Z,1017.57
2017-08-13T09:26:22.599Z,1017.64
2017-08-13T09:27:23.237Z,1017.63
2017-08-13T09:28:23.872Z,1017.63
2017-08-13T09:29:24.707Z,1017.62
2017-08-13T09:30:25.351Z,1017.56
2017-08-13T09:31:25.980Z,1017.58
2017-08-13T09:32:26.616Z,1017.50
2017-08-13T09:33:27.250Z,1017.52
2017-08-13T09:34:27.889Z,1017.46
2017-08-13T09:35:28.578Z,1017.50
2017-08-13T09:36:29.210Z,1017.45
2017-08-13T09:37:29.850Z,1017.47
2017-08-13T09:38:30.686Z,1017.41
2017-08-13T09:39:31.318Z,1017.48
2017-08-13T09:40:31.956Z,1017.38
2017-08-13T09:41:32.588Z,1017.41
2017-08-13T09:42:33.226Z,1017.33
2017-08-13T09:43:33.858Z,1017.40
2017-08-13T09:44:34.494Z,1017.35
2017-08-13T09:45:35.131Z,1017.36
2017-08-13T09:46:36.064Z,1017.36
2017-08-13T09:47:36.705Z,1017.33
2017-08-13T09:48:37.343Z,1017.36
2017-08-13T09:49:37.977Z,1017.38
2017-08-13T09:50:38.611Z,1017.38
2017-08-13T09:51:39.250Z,1017.42
2017-08-13T09:52:39.889Z,1017.41
2017-08-13T09:53:40.520Z,1017.39
2017-08-13T09:54:41.353Z,1017.41
2017-08-13T09:55:41.999Z,1017.36
2017-08-13T09:56:42.640Z,1017.40
2017-08-13T09:57:43.273Z,1017.39
2017-08-13T09:58:43.905Z,1017.46
2017-08-13T09:59:44.545Z,1017.43
2017-08-13T10:00:45.185Z,1017.47
2017-08-13T10:01:45.819Z,1017.42
2017-08-13T10:02:46.651Z,1017.43
2017-08-13T10:03:47.291Z,1017.39
2017-08-13T10:04:47.929Z,1017.40
2017-08-13T10:05:48.572Z,1017.43
2017-08-13T10:06:49.205Z,1017.37
2017-08-13T10:07:49.841Z,1017.43
2017-08-13T10:08:50.475Z,1017.45
2017-08-13T10:09:51.111Z,1017.38
2017-08-13T10:10:51.745Z,1017.40
2017-08-13T10:11:52.581Z,1017.40
2017-08-13T10:12:53.215Z,1017.45
2017-08-13T10:13:53.857Z,1017.40
2017-08-13T10:14:54.487Z,1017.38
2017-08-13T10:15:55.128Z,1017.35
2017-08-13T10:16:55.766Z,1017.39
2017-08-13T10:17:56.404Z,1017.34
2017-08-13T10:18:57.091Z,1017.32
2017-08-13T10:19:57.974Z,1017.36
2017-08-13T10:20:58.619Z,1017.38
2017-08-13T10:21:59.258Z,1017.39
2017-08-13T10:22:59.889Z,1017.33
2017-08-13T10:24:00.522Z,1017.29
2017-08-13T10:25:01.157Z,1017.29
2017-08-13T10:26:01.795Z,1017.34
2017-08-13T10:27:02.428Z,1017.30
2017-08-13T10:28:03.263Z,1017.25
2017-08-13T10:29:03.906Z,1017.37
2017-08-13T10:30:04.543Z,1017.26
2017-08-13T10:31:05.175Z,1017.35
2017-08-13T10:32:05.815Z,1017.27
2017-08-13T10:33:06.451Z,1017.26
2017-08-13T10:34:07.086Z,1017.27
2017-08-13T10:35:07.739Z,1017.29
2017-08-13T10:36:08.557Z,1017.31
2017-08-13T10:37:09.193Z,1017.29
2017-08-13T10:38:09.833Z,1017.22
2017-08-13T10:39:10.467Z,1017.28
2017-08-13T10:40:11.108Z,1017.29
2017-08-13T10:41:11.742Z,1017.35
2017-08-13T10:42:12.380Z,1017.32
2017-08-13T10:43:13.018Z,1017.30
2017-08-13T10:44:13.801Z,1017.32
2017-08-13T10:45:14.436Z,1017.38
2017-08-13T10:46:15.075Z,1017.30
2017-08-13T10:47:15.708Z,1017.31
2017-08-13T10:48:16.344Z,1017.30
2017-08-13T10:49:16.983Z,1017.29
2017-08-13T10:50:17.617Z,1017.21
2017-08-13T10:51:18.254Z,1017.18
2017-08-13T10:52:18.895Z,1017.24
2017-08-13T10:53:19.732Z,1017.31
2017-08-13T10:54:20.373Z,1017.24
2017-08-13T10:55:21.012Z,1017.31
2017-08-13T10:56:21.655Z,1017.29
2017-08-13T10:57:22.285Z,1017.39
2017-08-13T10:58:22.927Z,1017.30
2017-08-13T10:59:23.568Z,1017.24
2017-08-13T11:00:24.202Z,1017.29
2017-08-13T11:01:24.993Z,1017.34
2017-08-13T11:02:25.633Z,1017.32
2017-08-13T11:03:26.270Z,1017.28
2017-08-13T11:04:26.906Z,1017.32
2017-08-13T11:05:27.539Z,1017.31
2017-08-13T11:06:28.177Z,1017.35
2017-08-13T11:07:28.817Z,1017.36
2017-08-13T11:08:29.464Z,1017.37
2017-08-13T11:09:30.291Z,1017.37
2017-08-13T11:10:30.936Z,1017.33
2017-08-13T11:11:31.574Z,1017.36
2017-08-13T11:12:32.208Z,1017.33
2017-08-13T11:13:32.850Z,1017.32
2017-08-13T11:14:33.489Z,1017.35
2017-08-13T11:15:34.123Z,1017.26
2017-08-13T11:16:34.760Z,1017.24
2017-08-13T11:17:35.546Z,1017.28
2017-08-13T11:18:36.190Z,1017.22
2017-08-13T11:19:36.822Z,1017.22
2017-08-13T11:20:37.463Z,1017.20
2017-08-13T11:21:38.108Z,1017.11
2017-08-13T11:22:38.744Z,1017.17
2017-08-13T11:23:39.385Z,1017.17
2017-08-13T11:24:40.027Z,1017.17
2017-08-13T11:25:40.669Z,1017.14
2017-08-13T11:26:41.497Z,1017.19
2017-08-13T11:27:42.140Z,1017.15
2017-08-13T11:28:42.774Z,1017.12
2017-08-13T11:29:43.409Z,1017.09
2017-08-13T11:30:44.048Z,1017.11
2017-08-13T11:31:44.683Z,1017.12
2017-08-13T11:32:45.321Z,1017.04
2017-08-13T11:33:45.956Z,1017.04
2017-08-13T11:34:46.844Z,1017.02
2017-08-13T11:35:47.496Z,1017.00
2017-08-13T11:36:48.122Z,1016.91
2017-08-13T11:37:48.757Z,1016.98
2017-08-13T11:38:49.401Z,1016.92
2017-08-13T11:39:50.035Z,1017.00
2017-08-13T11:40:50.677Z,1016.93
2017-08-13T11:41:51.307Z,1016.99
2017-08-13T11:42:52.252Z,1016.93
2017-08-13T11:43:52.890Z,1016.99
2017-08-13T11:44:53.526Z,1017.02
2017-08-13T11:45:54.167Z,1017.02
2017-08-13T11:46:54.812Z,1017.05
2017-08-13T11:47:55.456Z,1017.01
2017-08-13T11:48:56.082Z,1017.02
2017-08-13T11:49:56.724Z,1016.98
2017-08-13T11:50:57.567Z,1016.97
2017-08-13T11:51:58.198Z,1017.03
2017-08-13T11:52:58.845Z,1016.90
2017-08-13T11:53:59.482Z,1017.03
2017-08-13T11:55:00.113Z,1017.05
2017-08-13T11:56:00.753Z,1017.03
2017-08-13T11:57:01.396Z,1016.98
2017-08-13T11:58:02.026Z,1017.03
2017-08-13T11:59:03.165Z,1017.02
2017-08-13T12:00:03.809Z,1017.00
2017-08-13T12:01:04.444Z,1017.01
2017-08-13T12:02:05.078Z,1016.96
2017-08-13T12:03:05.712Z,1016.98
2017-08-13T12:04:06.349Z,1016.99
2017-08-13T12:05:06.991Z,1017.03
2017-08-13T12:06:07.639Z,1017.00
2017-08-13T12:07:08.265Z,1017.07
2017-08-13T12:08:09.107Z,1017.00
2017-08-13T12:09:09.891Z,1017.04
2017-08-13T12:10:10.528Z,1016.99
2017-08-13T12:11:11.215Z,1016.99
2017-08-13T12:12:11.869Z,1017.01
2017-08-13T12:13:12.499Z,1017.03